Time;durP1;ratioP1;P1;durP2;ratioP2;P2;SDS_P1;SDS_P2;PMS_P1;PMS_P2;Temp;Humidity;BMP_temperature;BMP_pressure;BME280_temperature;BME280_humidity;BME280_pressure;Samples;Min_cycle;Max_cycle;Signal;HPM_P1;HPM_P2
2022/07/06 00:01:15;;;;;;;3.58;1.60;;;;;;;18.09;63.93;101080.25;5019005;28;20038;-71
2022/07/06 00:03:40;;;;;;;2.17;1.17;;;;;;;18.11;63.23;101078.41;5024646;28;20404;-72
2022/07/06 00:06:05;;;;;;;2.92;1.38;;;;;;;18.04;64.43;101079.50;5021512;28;20145;-72
2022/07/06 00:08:31;;;;;;;4.95;1.77;;;;;;;18.03;66.21;101078.63;5023790;28;20053;-72
2022/07/06 00:10:56;;;;;;;5.85;1.65;;;;;;;17.94;68.42;101086.88;5026018;28;20029;-72
2022/07/06 00:13:21;;;;;;;7.15;1.80;;;;;;;17.82;68.77;101085.44;5022855;28;20489;-72
2022/07/06 00:15:47;;;;;;;5.43;1.58;;;;;;;17.78;67.34;101089.06;5021842;28;20203;-72
2022/07/06 00:18:12;;;;;;;2.80;1.48;;;;;;;17.69;68.39;101087.53;5024034;28;20472;-72
2022/07/06 00:20:37;;;;;;;3.35;1.90;;;;;;;17.61;69.60;101088.66;5021052;28;20038;-72
2022/07/06 00:23:03;;;;;;;4.15;1.67;;;;;;;17.47;70.05;101094.34;5023456;28;20104;-72
2022/07/06 00:25:28;;;;;;;5.30;1.58;;;;;;;17.55;68.97;101097.66;5018963;28;20038;-72
2022/07/06 00:27:53;;;;;;;6.15;1.67;;;;;;;17.55;70.45;101094.13;5022223;28;20052;-72
2022/07/06 00:30:19;;;;;;;5.07;1.77;;;;;;;17.47;69.23;101091.66;5023022;28;20053;-72
2022/07/06 00:32:44;;;;;;;4.40;1.95;;;;;;;17.49;69.30;101088.03;5024951;28;20040;-72
2022/07/06 00:35:09;;;;;;;3.13;1.30;;;;;;;17.46;69.64;101080.13;5024537;28;20112;-72
2022/07/06 00:37:35;;;;;;;2.83;1.35;;;;;;;17.42;68.88;101067.78;5022437;28;20064;-72
2022/07/06 00:40:00;;;;;;;2.22;1.30;;;;;;;17.64;67.19;101043.19;5021212;28;20034;-72
2022/07/06 00:42:26;;;;;;;3.00;1.33;;;;;;;17.71;67.45;101018.06;5004061;28;20183;-71
2022/07/06 00:44:51;;;;;;;2.95;1.73;;;;;;;17.71;68.41;100994.03;5022564;28;20104;-72
2022/07/06 00:47:16;;;;;;;2.90;1.50;;;;;;;17.70;67.75;100986.97;5021268;28;20029;-71
2022/07/06 00:52:26;;;;;;;5.05;1.88;;;;;;;17.60;68.59;101012.16;5004197;28;20045;-72
2022/07/06 00:54:51;;;;;;;5.22;2.33;;;;;;;17.38;70.63;101009.22;5019950;28;20060;-71
2022/07/06 00:57:18;;;;;;;5.22;1.77;;;;;;;17.25;69.53;101016.66;5020084;28;20026;-72
2022/07/06 00:59:43;;;;;;;6.30;1.65;;;;;;;17.21;69.31;101020.31;5023828;28;20033;-72
2022/07/06 01:02:08;;;;;;;3.08;1.50;;;;;;;17.07;69.45;101018.88;5025744;28;20033;-71
2022/07/06 01:04:34;;;;;;;3.95;1.98;;;;;;;16.93;74.39;101028.13;5026163;28;20538;-72
2022/07/06 01:07:01;;;;;;;4.32;1.95;;;;;;;16.69;73.90;101042.88;5008105;28;20989;-71
2022/07/06 01:09:26;;;;;;;4.57;2.00;;;;;;;16.48;74.92;101046.91;5019784;28;20034;-72
2022/07/06 01:11:53;;;;;;;4.18;1.60;;;;;;;16.41;73.01;101040.84;5022244;28;20091;-72
2022/07/06 01:14:19;;;;;;;5.03;1.85;;;;;;;16.42;72.83;101040.78;5012570;28;20033;-72
2022/07/06 01:16:45;;;;;;;5.45;1.80;;;;;;;16.39;73.23;101046.19;5021297;28;20037;-72
2022/07/06 01:19:10;;;;;;;2.75;1.65;;;;;;;16.21;76.76;101052.78;5021398;28;20373;-71
2022/07/06 01:21:38;;;;;;;5.10;2.22;;;;;;;16.14;75.67;101051.19;5021745;28;20060;-71
2022/07/06 01:24:03;;;;;;;4.60;1.92;;;;;;;16.15;74.30;101055.59;5018307;28;20029;-71
2022/07/06 01:26:30;;;;;;;2.70;1.50;;;;;;;16.11;74.82;101055.69;5019725;28;20124;-71
2022/07/06 01:28:55;;;;;;;5.47;2.00;;;;;;;16.12;76.13;101053.00;5004762;28;20507;-72
2022/07/06 01:31:23;;;;;;;4.47;1.88;;;;;;;16.12;76.60;101053.00;5019145;28;20037;-70
2022/07/06 01:33:51;;;;;;;3.03;1.63;;;;;;;16.24;74.88;101062.50;5020880;28;20038;-71
2022/07/06 01:36:16;;;;;;;4.32;1.92;;;;;;;16.28;74.99;101063.34;5017960;28;20504;-70
2022/07/06 01:38:54;;;;;;;4.72;1.83;;;;;;;16.24;76.82;101056.31;5021383;28;20033;-71
2022/07/06 01:41:20;;;;;;;4.55;2.22;;;;;;;16.14;77.40;101060.97;5016581;28;20030;-71
2022/07/06 01:43:46;;;;;;;3.05;1.60;;;;;;;16.16;75.21;101052.00;5004923;28;20037;-71
2022/07/06 01:46:12;;;;;;;3.50;1.90;;;;;;;16.16;74.89;101053.81;5018316;28;20491;-70
2022/07/06 01:48:37;;;;;;;10.70;1.98;;;;;;;16.00;78.65;101059.44;5022635;28;20095;-71
2022/07/06 01:51:04;;;;;;;3.10;1.63;;;;;;;16.05;76.14;101047.84;5015199;28;20040;-71
2022/07/06 01:53:29;;;;;;;3.75;1.98;;;;;;;16.01;79.35;101060.34;5020964;28;20071;-70
2022/07/06 01:55:55;;;;;;;2.60;1.60;;;;;;;16.00;77.82;101064.75;5019326;28;20044;-71
2022/07/06 01:58:21;;;;;;;3.95;1.67;;;;;;;16.05;76.91;101062.03;5018537;28;20168;-70
2022/07/06 02:00:46;;;;;;;3.65;2.03;;;;;;;16.06;77.91;101062.88;5001311;28;20069;-71
2022/07/06 02:03:12;;;;;;;3.78;1.80;;;;;;;16.05;77.30;101058.47;5004807;28;20125;-71
2022/07/06 02:05:38;;;;;;;3.28;1.80;;;;;;;16.02;78.42;101069.19;5023283;28;20120;-71
2022/07/06 02:08:04;;;;;;;4.40;1.85;;;;;;;15.97;77.78;101063.97;5019632;28;20671;-70
2022/07/06 02:10:31;;;;;;;3.88;1.83;;;;;;;15.94;77.83;101058.69;5020155;28;20033;-71
2022/07/06 02:12:56;;;;;;;4.60;2.13;;;;;;;15.92;77.49;101052.53;5019146;28;20030;-71
2022/07/06 02:15:21;;;;;;;8.93;2.47;;;;;;;15.82;78.44;101043.84;5022643;28;20040;-70
2022/07/06 02:17:47;;;;;;;3.75;1.90;;;;;;;15.73;78.13;101046.69;5014854;28;20034;-69
2022/07/06 02:20:12;;;;;;;4.03;1.70;;;;;;;15.66;78.79;101045.88;5020044;28;20048;-70
2022/07/06 02:22:37;;;;;;;4.38;1.80;;;;;;;15.61;78.15;101045.09;5004895;28;20026;-71
2022/07/06 02:25:04;;;;;;;7.60;2.30;;;;;;;15.53;80.47;101047.03;5017062;28;20076;-71
2022/07/06 02:27:30;;;;;;;4.10;2.38;;;;;;;15.43;81.38;101048.09;5007863;28;20061;-71
2022/07/06 02:29:57;;;;;;;3.55;2.00;;;;;;;15.29;79.78;101051.88;5004845;28;20543;-71
2022/07/06 02:32:22;;;;;;;5.47;2.33;;;;;;;15.08;83.65;101049.59;5007233;28;20045;-71
2022/07/06 02:34:48;;;;;;;2.97;1.77;;;;;;;15.02;84.65;101058.53;4986619;28;20108;-71
2022/07/06 02:37:14;;;;;;;3.10;1.20;;;;;;;15.04;82.73;101054.09;5022856;28;20112;-70
2022/07/06 02:39:39;;;;;;;6.45;2.25;;;;;;;15.07;82.89;101055.81;5006099;28;20408;-71
2022/07/06 02:42:05;;;;;;;3.65;1.55;;;;;;;15.09;82.76;101067.28;5024954;28;20113;-71
2022/07/06 02:44:31;;;;;;;4.50;1.52;;;;;;;15.05;82.63;101062.94;5005249;28;20389;-70
2022/07/06 02:46:56;;;;;;;3.95;2.20;;;;;;;14.99;84.67;101060.38;5025811;28;20072;-71
2022/07/06 02:49:22;;;;;;;5.38;2.75;;;;;;;14.93;85.42;101065.78;5008677;28;20029;-71
2022/07/06 02:51:47;;;;;;;5.07;1.92;;;;;;;14.90;85.88;101067.56;5028439;28;20037;-70
2022/07/06 02:54:13;;;;;;;25.08;15.43;;;;;;;14.95;84.46;101063.97;5028426;28;20063;-71
2022/07/06 02:56:38;;;;;;;5.75;2.28;;;;;;;14.90;84.12;101066.69;5014296;28;20510;-70
2022/07/06 02:59:05;;;;;;;5.30;2.00;;;;;;;14.87;83.77;101072.94;5014748;28;20040;-71
2022/07/06 03:01:30;;;;;;;4.57;2.72;;;;;;;14.85;84.58;101074.72;5029516;28;20033;-70
2022/07/06 03:03:56;;;;;;;4.65;2.10;;;;;;;14.87;83.80;101072.94;5016397;28;20029;-70
2022/07/06 03:06:22;;;;;;;4.18;1.95;;;;;;;14.87;84.75;101072.94;5013641;28;20033;-71
2022/07/06 03:08:47;;;;;;;4.68;1.67;;;;;;;14.92;85.60;101070.22;5024202;28;20041;-71
2022/07/06 03:11:13;;;;;;;258.35;27.65;;;;;;;14.94;85.56;101078.19;5004487;28;20509;-71
2022/07/06 03:13:38;;;;;;;3.20;1.52;;;;;;;14.94;85.24;101079.06;5020632;28;20511;-71
2022/07/06 03:16:04;;;;;;;5.25;2.40;;;;;;;14.88;85.09;101088.00;5007855;28;20025;-70
2022/07/06 03:18:30;;;;;;;598.88;276.52;;;;;;;14.86;87.39;101092.44;5005028;28;20049;-71
2022/07/06 03:20:56;;;;;;;1154.03;578.13;;;;;;;14.85;88.01;101088.03;5011196;28;20026;-71
2022/07/06 03:23:21;;;;;;;271.83;131.75;;;;;;;14.88;87.65;101085.34;5024055;28;20025;-71
2022/07/06 03:25:47;;;;;;;64.00;60.95;;;;;;;14.94;87.32;101094.13;5011295;28;20496;-70
2022/07/06 03:28:12;;;;;;;80.70;76.75;;;;;;;15.00;86.30;101094.03;5025562;28;20495;-70
2022/07/06 03:30:37;;;;;;;165.75;157.88;;;;;;;15.03;86.41;101086.88;5018729;28;20041;-70
2022/07/06 03:33:03;;;;;;;305.90;290.42;;;;;;;15.10;85.11;101077.03;5025134;28;20022;-70
2022/07/06 03:35:29;;;;;;;161.43;152.35;;;;;;;15.14;85.07;101078.72;5018195;28;20231;-71
2022/07/06 03:37:55;;;;;;;746.17;468.83;;;;;;;15.20;84.71;101086.59;5028452;28;20527;-71
2022/07/06 03:40:22;;;;;;;230.75;75.93;;;;;;;15.23;83.76;101083.91;5024193;28;20026;-71
2022/07/06 03:42:50;;;;;;;13.18;10.93;;;;;;;15.19;83.75;101082.19;5026236;28;20092;-71
2022/07/06 03:45:15;;;;;;;120.57;114.80;;;;;;;15.21;83.49;101083.03;5011119;28;20029;-70
2022/07/06 03:47:41;;;;;;;664.22;341.10;;;;;;;15.27;82.39;101082.06;5009928;28;20575;-71
2022/07/06 03:50:07;;;;;;;40.85;36.85;;;;;;;15.29;82.25;101086.44;5015101;28;20447;-71
2022/07/06 03:52:34;;;;;;;8.75;7.85;;;;;;;15.33;82.30;101089.94;5009249;28;20543;-70
2022/07/06 03:55:00;;;;;;;31.83;29.42;;;;;;;15.38;81.74;101081.88;5015604;28;20034;-71
2022/07/06 03:57:28;;;;;;;360.25;220.48;;;;;;;15.42;81.13;101075.59;5022555;28;20428;-70
2022/07/06 03:59:56;;;;;;;170.50;145.20;;;;;;;15.50;80.19;101079.88;5016376;28;20057;-70
2022/07/06 04:02:22;;;;;;;40.40;36.70;;;;;;;15.46;80.58;101087.97;5009396;28;20526;-71
2022/07/06 04:04:50;;;;;;;11.43;10.55;;;;;;;15.41;79.06;101082.72;5026035;28;20124;-71
2022/07/06 04:07:16;;;;;;;5.20;4.18;;;;;;;15.40;77.66;101085.38;5007107;28;20061;-71
2022/07/06 04:09:41;;;;;;;4.95;3.50;;;;;;;15.40;75.45;101088.03;5023453;28;20476;-70
2022/07/06 04:12:07;;;;;;;33.97;30.98;;;;;;;15.41;74.15;101089.81;5006368;28;20083;-70
2022/07/06 04:14:34;;;;;;;45.72;23.25;;;;;;;15.51;72.60;101086.06;5003795;28;20120;-70
2022/07/06 04:17:51;;;;;;;35.88;33.20;;;;;;;15.51;69.97;101091.38;5026484;28;20291;-70
2022/07/06 04:19:46;;;;;;;3.83;3.33;;;;;;;15.56;69.74;101085.09;5010068;28;20550;-70
2022/07/06 04:22:11;;;;;;;4.22;3.58;;;;;;;15.64;68.68;101092.06;5018825;28;20029;-70
2022/07/06 04:24:37;;;;;;;4.65;3.33;;;;;;;15.67;67.71;101081.38;5017191;28;20025;-70
2022/07/06 04:27:02;;;;;;;3.67;3.38;;;;;;;15.72;67.76;101099.03;5011661;28;20030;-70
2022/07/06 04:29:28;;;;;;;18.08;16.83;;;;;;;15.90;66.83;101094.25;5014393;28;20496;-70
2022/07/06 04:31:53;;;;;;;14.90;13.75;;;;;;;15.97;65.21;101094.13;5025516;28;20069;-70
2022/07/06 04:34:19;;;;;;;30.92;28.40;;;;;;;16.04;65.43;101096.69;5023957;28;20037;-71
2022/07/06 04:36:44;;;;;;;18.58;17.20;;;;;;;16.03;65.13;101100.22;5024038;28;20393;-70
2022/07/06 04:39:09;;;;;;;33.38;30.88;;;;;;;16.09;64.59;101105.44;5022809;28;20504;-70
2022/07/06 04:41:35;;;;;;;5.25;4.75;;;;;;;16.14;63.72;101108.91;5001941;28;20125;-70
2022/07/06 04:44:00;;;;;;;5.35;4.95;;;;;;;16.23;64.04;101106.03;4988781;28;20047;-70
2022/07/06 04:46:26;;;;;;;4.53;4.13;;;;;;;16.26;63.49;101111.31;5013636;28;20037;-70
2022/07/06 04:48:52;;;;;;;5.45;4.03;;;;;;;16.27;62.77;101106.84;5011066;28;20037;-71
2022/07/06 04:51:23;;;;;;;7.60;7.10;;;;;;;16.38;62.62;101118.19;5012776;28;20030;-70
2022/07/06 04:53:48;;;;;;;5.32;4.85;;;;;;;16.38;62.46;101123.50;4996100;28;20163;-70
2022/07/06 04:56:14;;;;;;;6.40;5.90;;;;;;;16.39;61.84;101125.25;5012558;28;20116;-70
2022/07/06 04:58:40;;;;;;;6.25;5.85;;;;;;;16.37;62.14;101122.63;5007677;28;20113;-71
2022/07/06 05:01:07;;;;;;;6.13;5.72;;;;;;;16.38;61.82;101127.03;5011058;28;20586;-70
2022/07/06 05:03:35;;;;;;;5.78;4.68;;;;;;;16.45;61.93;101122.44;5025447;28;20108;-70
2022/07/06 05:06:00;;;;;;;6.38;5.15;;;;;;;16.59;61.86;101133.69;5004160;28;20037;-71
2022/07/06 05:08:26;;;;;;;5.47;5.07;;;;;;;16.65;61.03;101128.22;5014504;28;20038;-70
2022/07/06 05:10:51;;;;;;;6.03;5.63;;;;;;;16.75;60.46;101126.25;5023484;28;20040;-70
2022/07/06 05:13:18;;;;;;;6.05;5.65;;;;;;;16.85;60.03;101116.31;5023449;28;20152;-69
2022/07/06 05:15:43;;;;;;;5.88;5.43;;;;;;;16.94;59.79;101120.53;5008133;28;20038;-70
2022/07/06 05:18:09;;;;;;;4.88;4.57;;;;;;;16.96;59.29;101116.91;5009034;28;20032;-71
2022/07/06 05:20:34;;;;;;;5.57;5.07;;;;;;;17.10;59.79;101121.91;5010416;28;20564;-71
2022/07/06 05:22:59;;;;;;;5.30;4.90;;;;;;;17.17;59.05;101125.34;5020582;28;20039;-70
2022/07/06 05:25:28;;;;;;;4.72;4.32;;;;;;;17.30;58.15;101125.00;5011077;28;20118;-71
2022/07/06 05:27:54;;;;;;;5.03;4.72;;;;;;;17.39;58.04;101131.88;4999786;28;20053;-70
2022/07/06 05:30:19;;;;;;;4.97;4.57;;;;;;;17.48;56.96;101131.66;5010158;28;20037;-70
2022/07/06 05:32:45;;;;;;;5.22;4.68;;;;;;;17.69;56.98;101132.03;5018968;28;20040;-71
2022/07/06 05:35:11;;;;;;;4.35;4.05;;;;;;;17.69;55.94;101135.56;5023692;28;20627;-70
2022/07/06 05:37:37;;;;;;;4.70;4.25;;;;;;;17.72;55.86;101135.50;5027747;28;20033;-70
2022/07/06 05:40:04;;;;;;;4.78;4.47;;;;;;;17.75;54.73;101137.22;5004792;28;20401;-71
2022/07/06 05:42:29;;;;;;;6.28;5.82;;;;;;;17.73;55.11;101141.69;5020334;28;20065;-70
2022/07/06 05:44:56;;;;;;;7.75;6.93;;;;;;;17.81;54.65;101138.88;5012335;28;20116;-70
2022/07/06 05:50:12;;;;;;;6.75;6.30;;;;;;;18.24;53.95;101149.28;5027764;28;20507;-70
2022/07/06 05:52:42;;;;;;;7.30;6.60;;;;;;;18.59;52.94;101150.03;5007110;28;20519;-70
2022/07/06 05:55:09;;;;;;;5.20;4.85;;;;;;;18.58;53.02;101151.84;5011510;28;20084;-70
2022/07/06 05:57:35;;;;;;;5.43;4.97;;;;;;;18.59;52.51;101152.72;5013485;28;20068;-70
2022/07/06 06:00:03;;;;;;;5.85;5.45;;;;;;;18.70;51.99;101155.94;5018917;28;20495;-70
2022/07/06 06:02:42;;;;;;;5.38;5.07;;;;;;;18.93;51.67;101157.94;5014253;28;20108;-71
2022/07/06 06:05:11;;;;;;;8.07;7.38;;;;;;;18.97;50.91;101161.44;5012023;28;20029;-70
2022/07/06 06:07:38;;;;;;;5.88;5.47;;;;;;;18.91;49.23;101154.44;5030528;28;20101;-70
2022/07/06 06:10:09;;;;;;;5.47;5.07;;;;;;;18.99;49.24;101157.78;5027570;28;20033;-71
2022/07/06 06:12:35;;;;;;;5.13;4.77;;;;;;;18.70;48.65;101158.59;5007344;28;20416;-71
2022/07/06 06:15:01;;;;;;;6.07;5.53;;;;;;;18.66;48.93;101156.97;5023668;28;20029;-70
2022/07/06 06:17:27;;;;;;;6.25;5.85;;;;;;;18.81;49.49;101161.88;5027800;28;20042;-71
2022/07/06 06:19:52;;;;;;;6.25;5.85;;;;;;;19.01;49.16;101158.59;5023489;28;20037;-71
2022/07/06 06:22:18;;;;;;;6.60;6.20;;;;;;;19.12;48.58;101160.91;5030170;28;20025;-71
2022/07/06 06:24:43;;;;;;;5.20;4.80;;;;;;;19.13;47.26;101159.16;5021156;28;20457;-71
2022/07/06 06:27:08;;;;;;;4.50;4.20;;;;;;;18.99;46.83;101164.91;5024463;28;20134;-71
2022/07/06 06:29:34;;;;;;;4.50;4.20;;;;;;;18.94;47.63;101172.19;5023828;28;20065;-71
2022/07/06 06:31:59;;;;;;;3.63;3.33;;;;;;;19.00;47.33;101172.03;5022940;28;20419;-71
2022/07/06 06:34:25;;;;;;;6.15;4.45;;;;;;;19.03;47.54;101166.56;5024915;28;20056;-71
2022/07/06 06:36:50;;;;;;;5.65;5.25;;;;;;;19.06;47.08;101169.16;5022930;28;20042;-71
2022/07/06 06:39:15;;;;;;;4.22;3.92;;;;;;;19.06;47.87;101171.81;5026231;28;20083;-70
2022/07/06 06:41:41;;;;;;;4.78;3.90;;;;;;;19.10;47.54;101169.91;5022613;28;20489;-70
2022/07/06 06:44:06;;;;;;;3.88;3.58;;;;;;;19.16;46.87;101175.09;5025080;28;20041;-71
2022/07/06 06:46:38;;;;;;;3.58;3.20;;;;;;;19.12;46.93;101170.75;5025068;28;20045;-70
2022/07/06 06:49:03;;;;;;;3.65;3.35;;;;;;;18.98;47.20;101176.53;5022908;28;20092;-70
2022/07/06 06:51:29;;;;;;;3.13;2.92;;;;;;;19.04;47.48;101173.66;5025156;28;20037;-71
2022/07/06 06:53:54;;;;;;;3.53;3.20;;;;;;;19.18;47.04;101170.59;5022344;28;20053;-71
2022/07/06 06:56:19;;;;;;;3.95;3.65;;;;;;;19.47;46.98;101169.63;5023077;28;20041;-71
2022/07/06 06:58:45;;;;;;;4.40;4.05;;;;;;;19.59;46.46;101168.34;5024248;28;20064;-71
2022/07/06 07:01:10;;;;;;;6.40;4.90;;;;;;;19.67;45.58;101177.88;5027841;28;20033;-71
2022/07/06 07:03:35;;;;;;;4.15;3.85;;;;;;;19.62;45.67;101174.47;5025271;28;20021;-70
2022/07/06 07:06:01;;;;;;;5.10;4.60;;;;;;;19.80;46.10;101177.47;5025583;28;20030;-71
2022/07/06 07:08:26;;;;;;;6.60;5.93;;;;;;;20.02;46.07;101180.31;5021436;28;20037;-71
2022/07/06 07:10:52;;;;;;;6.88;6.47;;;;;;;20.00;44.79;101188.38;5024547;28;20037;-71
2022/07/06 07:13:17;;;;;;;8.27;7.53;;;;;;;19.97;44.64;101193.00;5022860;28;20494;-71
2022/07/06 07:15:42;;;;;;;11.73;8.80;;;;;;;19.87;44.28;101181.72;5023643;28;20036;-71
2022/07/06 07:18:08;;;;;;;10.70;10.10;;;;;;;19.65;45.09;101187.75;5024211;28;20037;-71
2022/07/06 07:20:33;;;;;;;10.25;9.70;;;;;;;19.46;44.96;101200.00;5022572;28;20030;-70
2022/07/06 07:23:00;;;;;;;10.45;9.85;;;;;;;19.53;45.28;101200.69;5024648;28;20037;-71
2022/07/06 07:25:26;;;;;;;10.02;9.32;;;;;;;19.54;45.69;101195.25;5019621;28;20029;-71
2022/07/06 07:27:52;;;;;;;10.57;9.85;;;;;;;19.64;44.59;101198.50;5023644;28;20037;-71
2022/07/06 07:30:17;;;;;;;11.45;10.73;;;;;;;19.74;44.38;101212.50;5023211;28;20030;-71
2022/07/06 07:32:42;;;;;;;12.40;11.70;;;;;;;19.67;45.22;101211.84;5021842;28;20038;-71
2022/07/06 07:35:09;;;;;;;8.75;7.97;;;;;;;19.91;45.23;101202.09;5025577;28;20041;-70
2022/07/06 07:37:34;;;;;;;9.35;8.50;;;;;;;20.20;43.48;101194.84;5024764;28;20033;-71
2022/07/06 07:40:00;;;;;;;8.52;7.93;;;;;;;20.29;43.07;101200.75;5021732;28;20041;-71
2022/07/06 07:42:25;;;;;;;7.22;6.80;;;;;;;20.28;42.48;101187.44;5023587;28;20041;-71
2022/07/06 07:44:51;;;;;;;11.10;10.50;;;;;;;20.31;43.36;101182.81;5023120;28;20033;-71
2022/07/06 07:47:16;;;;;;;18.90;18.00;;;;;;;20.35;41.76;101199.66;5022626;28;20029;-71
2022/07/06 07:49:42;;;;;;;25.33;24.13;;;;;;;20.28;42.36;101204.38;5024684;28;20400;-71
2022/07/06 07:52:08;;;;;;;32.03;30.10;;;;;;;20.13;42.52;101196.88;5020770;28;20085;-71
2022/07/06 07:54:33;;;;;;;31.10;29.38;;;;;;;20.24;42.04;101196.50;5021284;28;20481;-71
2022/07/06 07:57:00;;;;;;;30.83;29.33;;;;;;;20.38;41.85;101202.22;5023780;28;20045;-71
2022/07/06 07:59:25;;;;;;;30.77;29.27;;;;;;;20.16;42.00;101193.22;5024121;28;20025;-71
2022/07/06 08:01:51;;;;;;;31.42;29.30;;;;;;;20.32;42.69;101200.63;5023935;28;20033;-71
2022/07/06 08:04:16;;;;;;;30.33;28.92;;;;;;;20.57;42.02;101195.31;5028494;28;20044;-71
2022/07/06 08:06:42;;;;;;;28.73;27.23;;;;;;;20.76;41.57;101186.56;5028134;28;20048;-71
2022/07/06 08:09:07;;;;;;;30.77;29.27;;;;;;;21.02;40.50;101185.56;5025418;28;20029;-71
2022/07/06 08:11:36;;;;;;;15.13;14.27;;;;;;;20.94;40.70;101180.47;5023985;28;20038;-70
2022/07/06 08:14:03;;;;;;;24.15;22.95;;;;;;;20.79;40.98;101189.13;5024747;28;20415;-71
2022/07/06 08:16:28;;;;;;;24.67;23.52;;;;;;;20.78;40.51;101192.75;5025011;28;20396;-72
2022/07/06 08:18:54;;;;;;;26.92;25.45;;;;;;;20.86;40.03;101201.38;5026041;28;20034;-71
2022/07/06 08:21:19;;;;;;;20.92;19.83;;;;;;;20.96;39.83;101180.44;5028109;28;20455;-71
2022/07/06 08:23:45;;;;;;;22.10;21.00;;;;;;;21.04;39.29;101183.69;5029742;28;20120;-71
2022/07/06 08:26:11;;;;;;;23.60;22.50;;;;;;;20.85;39.21;101193.38;5024219;28;20084;-71
2022/07/06 08:28:36;;;;;;;27.63;26.33;;;;;;;20.84;40.22;101187.13;5024661;28;20037;-71
2022/07/06 08:31:02;;;;;;;30.42;29.00;;;;;;;21.10;39.99;101179.88;5028047;28;20067;-71
2022/07/06 08:33:27;;;;;;;25.25;24.00;;;;;;;21.44;39.74;101180.31;5028485;28;20033;-71
2022/07/06 08:35:52;;;;;;;20.80;19.80;;;;;;;21.73;38.00;101183.59;5029750;28;20037;-71
2022/07/06 08:38:18;;;;;;;20.20;19.20;;;;;;;21.96;37.43;101182.59;5016087;28;20033;-72
2022/07/06 08:40:47;;;;;;;14.25;13.48;;;;;;;21.83;37.17;101182.25;5028403;28;20029;-72
2022/07/06 08:43:14;;;;;;;16.38;15.48;;;;;;;21.94;36.16;101197.06;5028334;28;20496;-72
2022/07/06 08:45:43;;;;;;;13.65;12.95;;;;;;;21.71;35.85;101180.09;5027111;28;20030;-72
2022/07/06 08:48:09;;;;;;;12.65;11.85;;;;;;;21.39;36.18;101189.47;5026687;28;20055;-71
2022/07/06 08:50:35;;;;;;;13.32;12.63;;;;;;;21.42;36.32;101184.84;5021418;28;20034;-72
2022/07/06 08:53:02;;;;;;;13.07;12.35;;;;;;;21.86;35.97;101182.13;5021770;28;20553;-71
2022/07/06 08:55:27;;;;;;;14.95;14.15;;;;;;;21.99;36.00;101176.22;5018263;28;20049;-72
2022/07/06 08:57:54;;;;;;;14.98;14.18;;;;;;;22.40;36.21;101184.28;5020546;28;20038;-72
2022/07/06 09:00:20;;;;;;;14.52;13.73;;;;;;;22.46;34.78;101186.72;5023213;28;20033;-71
2022/07/06 09:02:46;;;;;;;15.32;14.48;;;;;;;22.01;33.88;101196.72;5019688;28;20444;-71
2022/07/06 09:05:15;;;;;;;15.95;15.15;;;;;;;21.88;35.16;101196.38;5022808;28;20041;-71
2022/07/06 09:07:40;;;;;;;16.15;15.35;;;;;;;21.93;35.00;101197.97;5023175;28;20038;-71
2022/07/06 09:10:07;;;;;;;16.90;16.00;;;;;;;21.76;35.24;101185.28;5027574;28;20029;-71
2022/07/06 09:12:33;;;;;;;16.98;15.95;;;;;;;21.59;35.58;101191.38;5022554;28;20120;-71
2022/07/06 09:14:58;;;;;;;15.70;14.90;;;;;;;21.52;34.95;101195.22;5022868;28;20179;-71
2022/07/06 09:17:28;;;;;;;18.05;17.05;;;;;;;21.53;35.95;101202.34;5027639;28;20485;-71
2022/07/06 09:19:54;;;;;;;16.55;15.65;;;;;;;21.58;35.40;101192.28;5023342;28;20045;-71
2022/07/06 09:22:29;;;;;;;17.25;16.30;;;;;;;21.92;35.74;101193.53;5020112;28;20025;-72
2022/07/06 09:25:10;;;;;;;14.73;14.02;;;;;;;22.29;35.26;101182.09;5019224;28;20045;-71
2022/07/06 09:27:47;;;;;;;16.70;15.55;;;;;;;22.47;34.58;101185.75;5023005;28;20037;-71
2022/07/06 09:30:13;;;;;;;11.25;10.55;;;;;;;22.02;35.78;101178.78;5020559;28;20096;-71
2022/07/06 09:32:44;;;;;;;10.95;10.23;;;;;;;21.72;36.37;101186.31;5025843;28;20034;-71
2022/07/06 09:35:27;;;;;;;10.40;9.70;;;;;;;21.70;35.94;101167.59;5023407;28;20041;-71
2022/07/06 09:38:03;;;;;;;11.27;10.32;;;;;;;21.47;36.14;101181.13;5022283;28;20038;-71
2022/07/06 09:40:34;;;;;;;9.63;9.13;;;;;;;21.51;36.36;101182.72;5021660;28;20484;-72
2022/07/06 09:43:12;;;;;;;12.60;11.73;;;;;;;21.69;36.26;101179.25;5023562;28;20033;-72
2022/07/06 09:45:40;;;;;;;10.65;10.05;;;;;;;21.93;35.82;101196.19;5023887;28;20034;-72
2022/07/06 09:48:11;;;;;;;11.15;10.30;;;;;;;21.95;35.12;101185.34;5028044;28;20057;-71
2022/07/06 09:50:41;;;;;;;11.63;10.98;;;;;;;22.48;35.25;101179.47;5027839;28;20025;-70
2022/07/06 09:53:07;;;;;;;10.32;9.73;;;;;;;22.31;34.40;101186.44;5024471;28;20037;-71
2022/07/06 09:55:32;;;;;;;9.20;8.70;;;;;;;22.41;34.20;101192.31;5026299;28;20039;-71
2022/07/06 09:57:58;;;;;;;8.65;7.85;;;;;;;22.34;34.77;101173.81;5028068;28;20412;-71
2022/07/06 10:00:23;;;;;;;7.40;6.97;;;;;;;22.38;34.36;101180.81;5024001;28;20126;-71
2022/07/06 10:02:50;;;;;;;7.57;7.07;;;;;;;22.47;34.20;101188.47;5025172;28;20057;-71
2022/07/06 10:05:17;;;;;;;7.15;6.75;;;;;;;22.04;34.05;101187.66;5020111;28;20037;-72
2022/07/06 10:07:46;;;;;;;7.20;6.80;;;;;;;21.88;35.08;101174.88;5024996;28;20038;-72
2022/07/06 10:10:11;;;;;;;10.63;7.38;;;;;;;21.89;34.47;101176.59;5026818;28;20508;-72
2022/07/06 10:12:37;;;;;;;9.27;8.75;;;;;;;21.62;35.39;101172.44;5024894;28;20029;-71
2022/07/06 10:15:04;;;;;;;8.73;8.23;;;;;;;21.81;35.07;101178.75;5025698;28;20072;-71
2022/07/06 10:17:29;;;;;;;8.02;7.57;;;;;;;22.16;34.62;101160.22;5026949;28;20053;-71
2022/07/06 10:19:56;;;;;;;7.28;6.82;;;;;;;22.69;34.86;101172.22;5025770;28;20433;-71
2022/07/06 10:22:22;;;;;;;7.93;6.32;;;;;;;22.93;33.53;101167.50;5020733;28;20065;-71
2022/07/06 10:24:49;;;;;;;5.13;4.82;;;;;;;22.86;33.45;101179.50;5019430;28;20069;-71
2022/07/06 10:27:14;;;;;;;7.30;5.32;;;;;;;22.54;34.30;101171.09;5023137;28;20096;-72
2022/07/06 10:29:40;;;;;;;4.95;4.55;;;;;;;22.12;34.91;101171.19;5019247;28;20073;-72
2022/07/06 10:32:06;;;;;;;4.97;4.57;;;;;;;21.68;35.91;101188.28;5022234;28;20034;-71
2022/07/06 10:34:34;;;;;;;6.05;5.00;;;;;;;21.49;36.13;101181.94;5026129;28;20033;-71
2022/07/06 10:37:00;;;;;;;4.65;4.25;;;;;;;21.58;35.57;101173.47;5020446;28;20096;-71
2022/07/06 10:42:43;;;;;;;4.25;3.60;;;;;;;22.14;35.31;101159.44;5021244;28;20030;-71
2022/07/06 10:45:10;;;;;;;4.00;3.70;;;;;;;22.31;33.87;101162.25;5024379;28;20072;-71
2022/07/06 10:47:36;;;;;;;4.32;3.90;;;;;;;22.50;34.63;101164.09;5022392;28;20535;-71
2022/07/06 10:50:03;;;;;;;5.95;3.63;;;;;;;22.82;33.65;101183.25;5025720;28;20041;-71
2022/07/06 10:52:59;;;;;;;4.35;4.03;;;;;;;22.75;33.61;101180.88;5023059;28;20053;-71
2022/07/06 10:55:31;;;;;;;7.05;3.67;;;;;;;22.39;34.06;101164.59;5021619;28;20037;-71
2022/07/06 10:57:57;;;;;;;4.50;4.18;;;;;;;22.42;34.61;101166.28;5025609;28;20037;-72
2022/07/06 11:00:22;;;;;;;3.05;2.83;;;;;;;22.35;34.19;101163.00;5022859;28;20060;-72
2022/07/06 11:02:48;;;;;;;6.75;3.75;;;;;;;21.92;34.39;101166.69;5024232;28;20090;-71
2022/07/06 11:05:40;;;;;;;3.85;3.53;;;;;;;22.09;34.30;101158.75;5023711;28;20038;-73
2022/07/06 11:08:08;;;;;;;;;;;;;;;22.76;33.38;101157.50;5015851;28;20054;-73
2022/07/06 11:10:47;;;;;;;3.25;2.97;;;;;;;23.06;33.25;101154.34;5022560;28;20334;-72
2022/07/06 11:13:28;;;;;;;2.95;2.75;;;;;;;22.56;32.77;101179.97;5022929;28;20392;-72
2022/07/06 11:16:02;;;;;;;5.00;3.35;;;;;;;22.06;33.38;101158.88;5022340;28;20044;-72
2022/07/06 11:18:27;;;;;;;2.92;2.72;;;;;;;22.21;33.66;101163.59;5023276;28;20041;-72
2022/07/06 11:21:19;;;;;;;3.58;3.22;;;;;;;22.34;32.59;101165.75;5024379;28;20037;-72
2022/07/06 11:23:49;;;;;;;5.63;3.13;;;;;;;22.56;32.65;101158.47;5022100;28;20445;-72
2022/07/06 11:26:16;;;;;;;3.42;3.13;;;;;;;22.82;32.74;101172.50;5022100;28;20312;-73